Time;durP1;ratioP1;P1;durP2;ratioP2;P2;SDS_P1;SDS_P2;PMS_P1;PMS_P2;Temp;Humidity;BMP_temperature;BMP_pressure;BME280_temperature;BME280_humidity;BME280_pressure;Samples;Min_cycle;Max_cycle;Signal;HPM_P1;HPM_P2
2021/12/02 00:01:44;;;;;;;2.85;1.45;;;;;;;7.22;84.77;97716.62;1687394;82;98362;-73
2021/12/02 00:04:10;;;;;;;4.33;1.57;;;;;;;7.23;84.80;97732.48;1683356;83;26165;-74
2021/12/02 00:06:36;;;;;;;2.95;1.37;;;;;;;7.23;84.56;97737.81;1684764;83;98231;-73
2021/12/02 00:09:03;;;;;;;3.90;1.40;;;;;;;7.31;84.32;97746.07;1688587;83;26014;-73
2021/12/02 00:11:29;;;;;;;1.98;1.07;;;;;;;7.33;84.04;97744.63;1686055;83;97495;-72
2021/12/02 00:13:58;;;;;;;6.85;1.92;;;;;;;7.33;83.11;97748.14;1674395;83;26349;-74
2021/12/02 00:16:37;;;;;;;4.12;1.45;;;;;;;7.38;83.21;97729.98;1667596;85;25751;-74
2021/12/02 00:21:46;;;;;;;3.12;1.20;;;;;;;7.37;82.84;97732.77;1673998;84;26654;-74
2021/12/02 00:24:18;;;;;;;2.05;1.22;;;;;;;7.38;82.57;97725.98;1682872;82;97975;-75
2021/12/02 00:26:43;;;;;;;1.27;1.00;;;;;;;7.39;82.41;97735.67;1711023;83;25860;-74
2021/12/02 00:29:09;;;;;;;2.05;1.20;;;;;;;7.37;81.43;97765.59;1671865;83;25935;-74
2021/12/02 00:31:38;;;;;;;0.80;0.75;;;;;;;7.40;80.78;97737.37;1665574;84;98323;-74
2021/12/02 00:34:08;;;;;;;2.98;1.30;;;;;;;7.41;80.81;97736.89;1650420;85;25745;-74
2021/12/02 00:36:38;;;;;;;3.00;1.30;;;;;;;7.38;80.19;97734.46;1680712;83;98218;-74
2021/12/02 00:39:17;;;;;;;3.22;1.10;;;;;;;7.35;79.53;97726.70;1699807;83;26358;-75
2021/12/02 00:41:45;;;;;;;2.35;1.15;;;;;;;7.37;79.30;97740.27;1698624;83;97486;-74
2021/12/02 00:44:13;;;;;;;2.30;1.22;;;;;;;7.37;79.04;97739.42;1699153;83;28068;-75
2021/12/02 00:46:40;;;;;;;2.83;1.00;;;;;;;7.34;78.72;97747.17;1667861;85;25935;-74
2021/12/02 00:49:15;;;;;;;5.15;3.20;;;;;;;7.29;76.46;97769.80;1669833;85;98308;-75
2021/12/02 00:51:49;;;;;;;7.70;2.60;;;;;;;7.29;76.46;97769.80;1684994;84;26137;-75
2021/12/02 00:54:15;;;;;;;5.10;2.25;;;;;;;7.21;76.46;97797.50;1680557;84;98702;-70
2021/12/02 00:56:41;;;;;;;3.47;1.47;;;;;;;6.89;75.89;97847.81;1699051;83;27595;-72
2021/12/02 00:59:08;;;;;;;4.17;1.47;;;;;;;6.25;76.67;97808.53;1704090;83;25829;-72
2021/12/02 01:01:36;;;;;;;1.02;0.80;;;;;;;5.79;77.55;97853.77;1676998;83;98181;-73
2021/12/02 01:04:10;;;;;;;3.40;1.15;;;;;;;5.59;78.13;97808.25;1647946;85;25974;-73
2021/12/02 01:06:39;;;;;;;2.40;0.90;;;;;;;5.41;78.32;97815.19;1681875;83;98263;-72
2021/12/02 01:09:07;;;;;;;2.52;1.45;;;;;;;5.32;78.10;97816.28;1678451;84;29554;-73
2021/12/02 01:11:33;;;;;;;6.05;1.82;;;;;;;5.20;78.03;97829.94;1673028;83;98775;-71
2021/12/02 01:14:01;;;;;;;3.65;1.25;;;;;;;5.13;78.02;97841.44;1699501;83;26481;-71
2021/12/02 01:16:27;;;;;;;3.83;1.40;;;;;;;5.08;77.80;97848.01;1685168;83;25704;-73
2021/12/02 01:18:53;;;;;;;5.10;1.75;;;;;;;5.05;76.73;97860.16;1685215;83;97319;-72
2021/12/02 01:21:24;;;;;;;2.92;0.90;;;;;;;5.01;76.68;97890.50;1687825;83;27467;-77
2021/12/02 01:23:54;;;;;;;4.15;1.47;;;;;;;4.99;76.69;97863.20;1679568;83;98790;-76
2021/12/02 01:26:20;;;;;;;2.80;1.07;;;;;;;4.94;76.26;97858.67;1686410;83;25786;-74
2021/12/02 01:28:50;;;;;;;2.67;0.80;;;;;;;4.94;76.63;97848.06;1680203;83;26257;-72
2021/12/02 01:31:17;;;;;;;6.50;1.27;;;;;;;4.98;75.66;97843.78;1685428;83;98241;-72
2021/12/02 01:33:46;;;;;;;4.85;1.47;;;;;;;5.10;75.99;97839.47;1687776;83;27462;-74
2021/12/02 01:36:13;;;;;;;5.67;1.40;;;;;;;5.16;75.37;97843.05;1681082;83;98427;-75
2021/12/02 01:38:41;;;;;;;3.95;0.78;;;;;;;5.29;74.91;97841.25;1679699;83;25851;-74
2021/12/02 01:41:07;;;;;;;4.10;1.05;;;;;;;5.38;74.75;97869.00;1689539;83;25535;-74
2021/12/02 01:43:52;;;;;;;4.28;0.90;;;;;;;5.40;74.93;97872.41;1684668;83;98882;-75
2021/12/02 01:46:25;;;;;;;4.15;0.60;;;;;;;5.39;75.06;97867.56;1686807;83;29602;-74
2021/12/02 01:49:04;;;;;;;2.75;1.22;;;;;;;5.39;74.86;97899.92;1685007;84;98188;-74
2021/12/02 01:51:32;;;;;;;1.60;0.62;;;;;;;5.38;75.27;97891.57;1673194;85;25851;-76
2021/12/02 01:54:08;;;;;;;4.85;0.88;;;;;;;5.41;75.68;97867.47;1629577;84;98492;-76
2021/12/02 01:56:55;;;;;;;3.10;0.90;;;;;;;5.39;75.96;97884.83;1640342;86;25843;-73
2021/12/02 01:59:28;;;;;;;15.55;1.20;;;;;;;5.45;76.08;97881.77;1658864;84;28201;-74
2021/12/02 02:01:57;;;;;;;2.47;0.80;;;;;;;5.44;76.24;97877.88;1667872;83;98637;-74
2021/12/02 02:04:24;;;;;;;3.87;1.02;;;;;;;5.48;76.65;97880.71;1675738;83;25780;-74
2021/12/02 02:07:14;;;;;;;1.70;1.00;;;;;;;5.47;76.76;97859.94;1669412;83;98232;-74
2021/12/02 02:09:41;;;;;;;3.70;0.70;;;;;;;5.49;76.57;97885.92;1675491;83;26271;-73
2021/12/02 02:12:11;;;;;;;2.50;1.00;;;;;;;5.49;75.24;97864.67;1672426;83;98346;-73
2021/12/02 02:14:38;;;;;;;4.15;0.82;;;;;;;5.54;75.62;97864.36;1676403;83;25848;-72
2021/12/02 02:17:30;;;;;;;6.10;1.45;;;;;;;5.54;75.51;97874.52;1678639;84;25776;-71
2021/12/02 02:19:34;;;;;;;2.77;0.78;;;;;;;5.59;74.28;97866.70;1667186;83;98355;-71
2021/12/02 02:22:00;;;;;;;5.22;1.07;;;;;;;5.66;74.75;97861.36;1679647;84;25854;-72
2021/12/02 02:24:27;;;;;;;9.00;2.25;;;;;;;5.64;74.73;97870.76;1704653;83;98725;-72
2021/12/02 02:26:54;;;;;;;13.10;2.60;;;;;;;5.65;74.49;97870.28;1710976;83;25802;-73
2021/12/02 02:29:20;;;;;;;9.00;2.30;;;;;;;5.66;72.79;97863.53;1667724;84;26528;-72
2021/12/02 02:31:47;;;;;;;3.45;1.00;;;;;;;5.69;73.19;97873.95;1666697;83;97338;-72
2021/12/02 02:34:13;;;;;;;5.78;1.55;;;;;;;5.69;73.43;97875.77;1641797;86;25795;-71
2021/12/02 02:36:51;;;;;;;12.07;3.08;;;;;;;5.66;73.20;97859.55;1649434;85;98240;-72
2021/12/02 02:39:10;;;;;;;2.95;1.10;;;;;;;5.63;73.25;97875.70;1643070;86;25966;-72
2021/12/02 02:41:45;;;;;;;2.40;0.90;;;;;;;5.62;73.39;97874.47;1642867;85;98431;-72
2021/12/02 02:44:10;;;;;;;9.85;1.87;;;;;;;5.61;72.85;97866.13;1674335;83;25885;-72
2021/12/02 02:46:39;;;;;;;5.53;0.90;;;;;;;5.59;73.48;97869.37;1682195;83;25903;-72
2021/12/02 02:49:10;;;;;;;12.28;2.58;;;;;;;5.61;72.97;97869.64;1678651;83;98204;-72
2021/12/02 02:51:38;;;;;;;3.40;1.02;;;;;;;5.60;73.07;97869.27;1679628;84;26007;-72
2021/12/02 02:54:08;;;;;;;1.37;0.55;;;;;;;5.58;71.91;97888.44;1702543;83;98365;-72
2021/12/02 02:56:44;;;;;;;7.05;1.15;;;;;;;5.55;72.30;97894.81;1703192;83;26009;-73
2021/12/02 03:01:42;;;;;;;12.88;1.00;;;;;;;5.53;71.87;97874.14;1704849;83;98385;-73
2021/12/02 03:04:17;;;;;;;5.92;0.95;;;;;;;5.51;71.89;97906.59;1700684;83;25735;-70
2021/12/02 03:06:50;;;;;;;3.65;0.78;;;;;;;5.50;69.79;97902.23;1702490;83;98304;-73
2021/12/02 03:09:24;;;;;;;2.37;0.82;;;;;;;5.51;70.98;97890.66;1705086;83;25739;-73
2021/12/02 03:11:48;;;;;;;3.90;0.68;;;;;;;5.48;71.09;97894.84;1700964;83;98837;-73
2021/12/02 03:14:16;;;;;;;4.80;0.90;;;;;;;5.45;71.42;97897.70;1700813;83;28214;-73
2021/12/02 03:16:44;;;;;;;7.55;0.70;;;;;;;5.42;71.65;97889.09;1672971;83;25849;-73
2021/12/02 03:19:23;;;;;;;3.92;0.62;;;;;;;5.38;71.58;97889.77;1690115;83;98245;-74
2021/12/02 03:21:49;;;;;;;1.35;0.55;;;;;;;5.36;71.53;97883.70;1672011;83;25981;-74
2021/12/02 03:24:15;;;;;;;5.40;1.20;;;;;;;5.35;71.74;97891.77;1671976;83;98785;-74
2021/12/02 03:26:41;;;;;;;7.60;1.07;;;;;;;5.35;71.94;97882.48;1676587;83;27440;-73
2021/12/02 03:29:07;;;;;;;4.15;0.65;;;;;;;5.33;71.84;97914.45;1674948;83;25848;-74
2021/12/02 03:31:34;;;;;;;3.37;0.70;;;;;;;5.35;72.37;97903.73;1671867;83;98753;-74
2021/12/02 03:34:00;;;;;;;5.12;0.70;;;;;;;5.32;72.41;97898.62;1674728;83;25844;-74
2021/12/02 03:36:27;;;;;;;5.67;1.10;;;;;;;5.31;71.68;97894.26;1674307;83;98670;-74
2021/12/02 03:38:54;;;;;;;1.55;0.70;;;;;;;5.33;72.05;97898.52;1672892;83;27401;-74
2021/12/02 03:41:19;;;;;;;2.05;0.80;;;;;;;5.32;72.00;97899.95;1672423;83;26037;-75
2021/12/02 03:43:48;;;;;;;2.80;0.75;;;;;;;5.30;72.23;97897.87;1673783;83;98588;-75
2021/12/02 03:46:18;;;;;;;1.72;0.80;;;;;;;5.29;72.02;97894.36;1673620;83;25820;-75
2021/12/02 03:48:45;;;;;;;3.92;1.07;;;;;;;5.29;72.17;97904.98;1671991;83;98585;-75
2021/12/02 03:51:12;;;;;;;2.72;0.90;;;;;;;5.31;71.62;97908.86;1674658;83;28304;-75
2021/12/02 03:53:39;;;;;;;4.22;2.72;;;;;;;5.36;71.44;97924.02;1672838;83;98857;-75
2021/12/02 03:56:07;;;;;;;6.83;1.92;;;;;;;5.36;70.95;97908.09;1673104;83;25925;-76
2021/12/02 03:58:36;;;;;;;6.85;1.05;;;;;;;5.34;71.11;97931.23;1672957;83;25802;-75
2021/12/02 04:01:03;;;;;;;4.03;0.60;;;;;;;5.37;70.80;97931.04;1674275;83;98581;-75
2021/12/02 04:03:29;;;;;;;8.08;1.12;;;;;;;5.39;70.32;97935.30;1678228;85;28255;-74
2021/12/02 04:05:55;;;;;;;7.22;1.07;;;;;;;5.36;70.30;97951.44;1674450;83;98893;-73
2021/12/02 04:08:27;;;;;;;5.65;1.12;;;;;;;5.34;68.86;97964.44;1671564;84;25770;-74
2021/12/02 04:10:57;;;;;;;33.78;7.37;;;;;;;5.29;69.22;97940.84;1674106;83;26130;-74
2021/12/02 04:13:24;;;;;;;13.48;3.10;;;;;;;5.25;68.78;97955.27;1670565;83;98950;-74
2021/12/02 04:15:53;;;;;;;2.70;1.02;;;;;;;5.19;69.05;97955.69;1673407;83;28306;-75
2021/12/02 04:18:14;;;;;;;5.60;1.07;;;;;;;5.12;68.95;97944.61;1669861;83;98449;-74
2021/12/02 04:20:40;;;;;;;17.30;4.03;;;;;;;5.08;68.46;97955.05;1673663;83;25910;-74
2021/12/02 04:23:06;;;;;;;19.23;1.85;;;;;;;5.03;67.10;97952.31;1674335;83;25827;-75
2021/12/02 04:25:32;;;;;;;5.60;1.02;;;;;;;4.96;67.51;97944.36;1669687;83;98967;-75
2021/12/02 04:27:58;;;;;;;19.57;2.77;;;;;;;4.91;66.94;97955.27;1669709;84;27504;-75
2021/12/02 04:30:26;;;;;;;8.98;1.40;;;;;;;4.85;66.47;97976.41;1669662;83;98721;-75
2021/12/02 04:32:54;;;;;;;1.35;0.47;;;;;;;4.81;66.50;97949.69;1671771;83;26217;-75
2021/12/02 04:35:20;;;;;;;1.65;0.80;;;;;;;4.80;66.47;97961.73;1667143;83;26704;-75
2021/12/02 04:37:51;;;;;;;1.85;0.93;;;;;;;4.74;66.88;97949.70;1669277;83;98259;-75
2021/12/02 04:40:16;;;;;;;6.28;1.00;;;;;;;4.66;67.54;97954.62;1676734;84;27488;-75
2021/12/02 04:42:43;;;;;;;9.73;1.07;;;;;;;4.60;67.97;97962.12;1668406;83;98715;-75
2021/12/02 04:45:11;;;;;;;1.87;0.50;;;;;;;4.51;68.12;97974.15;1670498;83;25781;-75
2021/12/02 04:47:38;;;;;;;3.62;0.70;;;;;;;4.44;68.49;97984.75;1673852;83;98400;-74
2021/12/02 04:50:09;;;;;;;4.60;1.25;;;;;;;4.39;68.79;97976.22;1676036;83;25881;-75
2021/12/02 04:52:36;;;;;;;2.40;0.88;;;;;;;4.38;69.02;97979.82;1672292;83;27606;-75
2021/12/02 04:55:04;;;;;;;5.95;1.52;;;;;;;4.34;69.11;97988.44;1669441;84;98651;-75
2021/12/02 04:57:30;;;;;;;5.62;0.80;;;;;;;4.32;69.32;97993.45;1676455;85;26242;-77
2021/12/02 04:59:56;;;;;;;3.85;0.65;;;;;;;4.33;68.60;98008.42;1669936;83;98700;-74
2021/12/02 05:02:22;;;;;;;10.80;1.90;;;;;;;4.33;68.91;97993.83;1670336;83;25894;-75
2021/12/02 05:04:48;;;;;;;4.05;1.30;;;;;;;4.31;68.45;97998.38;1671612;83;27492;-75
2021/12/02 05:07:14;;;;;;;3.77;1.42;;;;;;;4.26;68.83;98004.42;1671263;83;98792;-75
2021/12/02 05:09:39;;;;;;;6.62;1.25;;;;;;;4.26;68.85;98012.37;1670578;83;26562;-74
2021/12/02 05:12:06;;;;;;;3.45;0.78;;;;;;;4.21;68.74;98019.28;1666996;83;98799;-75
2021/12/02 05:14:32;;;;;;;2.35;0.68;;;;;;;4.18;69.21;98012.36;1676249;83;25851;-74
2021/12/02 05:16:58;;;;;;;6.72;1.10;;;;;;;4.14;69.29;98013.48;1671218;85;27427;-74
2021/12/02 05:19:24;;;;;;;3.58;0.70;;;;;;;4.12;69.32;98018.03;1670959;83;98578;-75
2021/12/02 05:21:50;;;;;;;4.40;0.90;;;;;;;4.10;69.18;98029.20;1670525;85;25937;-75
2021/12/02 05:24:16;;;;;;;7.35;1.37;;;;;;;4.08;69.31;98017.83;1668938;85;98260;-74
2021/12/02 05:26:42;;;;;;;8.20;1.10;;;;;;;4.07;69.45;98022.75;1674150;85;25919;-74
2021/12/02 05:29:08;;;;;;;5.67;0.75;;;;;;;4.05;69.58;98037.03;1670390;85;28357;-74
2021/12/02 05:31:36;;;;;;;6.53;1.05;;;;;;;4.03;69.61;98049.05;1666082;85;98098;-76
2021/12/02 05:34:04;;;;;;;4.37;1.05;;;;;;;4.02;69.73;98038.06;1669415;85;25940;-76
2021/12/02 05:36:30;;;;;;;10.00;1.25;;;;;;;3.95;69.79;98046.46;1669782;84;98665;-76
2021/12/02 05:38:56;;;;;;;7.75;1.92;;;;;;;3.93;69.87;98053.65;1669391;84;25811;-76
2021/12/02 05:41:22;;;;;;;5.35;1.67;;;;;;;3.90;70.11;98066.61;1672560;83;27616;-75
2021/12/02 05:43:48;;;;;;;2.92;0.95;;;;;;;3.87;70.27;98057.50;1669638;85;98298;-75
2021/12/02 05:46:14;;;;;;;6.70;1.45;;;;;;;3.86;70.20;98077.84;1672403;85;25938;-76
2021/12/02 05:48:40;;;;;;;6.87;2.42;;;;;;;3.87;69.94;98091.48;1671518;83;98173;-76
2021/12/02 05:51:07;;;;;;;14.75;3.55;;;;;;;3.93;70.00;98084.98;1672037;85;25840;-75
2021/12/02 05:53:34;;;;;;;16.05;3.92;;;;;;;3.96;69.89;98087.92;1666119;84;98979;-75
2021/12/02 05:55:59;;;;;;;11.35;2.83;;;;;;;3.95;69.68;98079.12;1667580;85;26022;-75
2021/12/02 05:58:25;;;;;;;5.95;1.35;;;;;;;3.96;69.80;98090.58;1668293;85;25821;-75
2021/12/02 06:00:53;;;;;;;4.72;1.45;;;;;;;3.92;69.81;98099.17;1670066;85;98850;-76
2021/12/02 06:03:19;;;;;;;6.33;2.60;;;;;;;3.92;69.65;98119.05;1674976;83;25748;-76
2021/12/02 06:05:47;;;;;;;13.15;1.75;;;;;;;3.92;69.46;98117.72;1669867;83;98757;-74
2021/12/02 06:08:15;;;;;;;6.05;1.52;;;;;;;3.89;69.40;98127.17;1675048;85;25911;-75
2021/12/02 06:10:42;;;;;;;8.18;3.20;;;;;;;3.96;67.95;98123.70;1670144;84;25918;-74
2021/12/02 06:13:08;;;;;;;10.78;3.00;;;;;;;3.93;67.99;98127.84;1662022;85;98175;-75
2021/12/02 06:15:34;;;;;;;12.18;3.30;;;;;;;3.90;68.09;98125.76;1675407;83;25613;-74
2021/12/02 06:17:59;;;;;;;5.90;2.17;;;;;;;3.87;68.43;98136.53;1672234;83;99016;-74
2021/12/02 06:20:26;;;;;;;14.65;4.12;;;;;;;3.83;68.14;98120.89;1666056;83;26470;-75
2021/12/02 06:22:51;;;;;;;10.68;2.98;;;;;;;3.81;67.97;98126.75;1669423;83;26227;-75
2021/12/02 06:25:44;;;;;;;13.88;2.83;;;;;;;3.80;67.96;98135.16;1672025;83;98446;-75
2021/12/02 06:27:53;;;;;;;12.78;3.70;;;;;;;3.78;68.24;98146.78;1667374;83;25744;-73
2021/12/02 06:30:24;;;;;;;10.88;3.95;;;;;;;3.72;68.45;98147.13;1672225;84;98709;-73
2021/12/02 06:32:51;;;;;;;8.50;2.58;;;;;;;3.71;68.48;98153.36;1671914;83;26276;-74
2021/12/02 06:35:17;;;;;;;16.02;4.55;;;;;;;3.67;68.70;98156.66;1670225;83;26216;-74
2021/12/02 06:37:47;;;;;;;13.22;4.10;;;;;;;3.65;69.05;98137.34;1673609;83;98464;-74
2021/12/02 06:40:14;;;;;;;11.43;3.80;;;;;;;3.62;69.16;98149.43;1669916;83;25789;-76
2021/12/02 06:42:41;;;;;;;14.35;3.67;;;;;;;3.58;69.42;98156.69;1671095;83;98675;-77
2021/12/02 06:45:09;;;;;;;15.10;3.33;;;;;;;3.58;69.55;98170.40;1673647;83;25945;-76
2021/12/02 06:47:40;;;;;;;8.90;2.65;;;;;;;3.59;69.69;98166.34;1671653;83;99060;-77
2021/12/02 06:50:13;;;;;;;3.55;1.25;;;;;;;3.61;69.72;98172.03;1673076;83;26351;-75
2021/12/02 06:52:39;;;;;;;4.78;1.30;;;;;;;3.67;69.13;98182.29;1671464;83;25754;-77
2021/12/02 06:55:06;;;;;;;9.73;2.42;;;;;;;3.72;69.38;98167.00;1669536;83;99014;-78
2021/12/02 06:57:32;;;;;;;8.73;2.42;;;;;;;3.70;69.43;98176.82;1671738;83;26441;-75
2021/12/02 07:00:03;;;;;;;10.78;2.70;;;;;;;3.68;69.70;98173.41;1668811;83;98735;-75
2021/12/02 07:02:25;;;;;;;7.05;1.55;;;;;;;3.68;69.76;98186.64;1670880;83;25796;-76
2021/12/02 07:04:51;;;;;;;6.67;2.42;;;;;;;3.68;69.49;98169.42;1668671;83;25749;-76
2021/12/02 07:07:17;;;;;;;10.18;2.25;;;;;;;3.67;69.49;98186.27;1671703;83;98280;-75
2021/12/02 07:09:44;;;;;;;10.68;2.22;;;;;;;3.64;69.12;98191.73;1668504;83;25837;-74
2021/12/02 07:12:10;;;;;;;5.90;1.90;;;;;;;3.62;69.24;98177.71;1675354;83;99043;-75
2021/12/02 07:14:35;;;;;;;6.92;2.22;;;;;;;3.57;69.40;98184.58;1672157;83;25810;-73
2021/12/02 07:17:01;;;;;;;9.45;2.95;;;;;;;3.59;69.44;98192.83;1671344;83;25861;-73
2021/12/02 07:19:27;;;;;;;10.80;2.17;;;;;;;3.60;69.71;98191.03;1678130;83;98577;-73
2021/12/02 07:21:53;;;;;;;4.15;1.70;;;;;;;3.61;69.25;98198.52;1670872;83;25810;-72
2021/12/02 07:24:19;;;;;;;27.40;6.30;;;;;;;3.61;68.97;98206.46;1663924;83;98240;-73
2021/12/02 07:26:46;;;;;;;31.42;8.88;;;;;;;3.61;68.43;98198.52;1674475;83;25780;-72
2021/12/02 07:29:18;;;;;;;21.87;5.35;;;;;;;3.59;67.51;98255.55;1674243;83;25903;-74
2021/12/02 07:31:44;;;;;;;9.38;3.15;;;;;;;3.58;67.26;98216.75;1671737;83;98459;-73
2021/12/02 07:34:10;;;;;;;4.97;2.47;;;;;;;3.53;66.81;98222.77;1669966;83;26440;-74
2021/12/02 07:36:37;;;;;;;3.83;1.42;;;;;;;3.49;66.79;98221.22;1673656;83;98357;-77
2021/12/02 07:39:09;;;;;;;3.27;1.22;;;;;;;3.47;66.17;98233.22;1674588;83;26445;-77
2021/12/02 07:41:36;;;;;;;;;;;;;;;3.45;66.01;98220.52;1674499;85;99292;-74
2021/12/02 07:44:02;;;;;;;7.17;1.30;;;;;;;3.40;66.54;98243.74;1672663;83;27407;-74
2021/12/02 07:46:28;;;;;;;6.90;1.47;;;;;;;3.35;66.75;98239.16;1677361;83;26022;-77
2021/12/02 07:48:55;;;;;;;4.20;1.80;;;;;;;3.33;66.58;98244.14;1671363;83;98149;-77
2021/12/02 07:51:26;;;;;;;5.62;1.70;;;;;;;3.31;66.21;98249.52;1679103;83;25816;-75
2021/12/02 07:53:54;;;;;;;5.87;3.30;;;;;;;3.31;66.78;98259.25;1673174;83;98482;-76
2021/12/02 07:56:25;;;;;;;7.20;1.45;;;;;;;3.30;66.96;98254.42;1674382;83;27755;-75
2021/12/02 07:58:51;;;;;;;5.40;1.17;;;;;;;3.33;67.02;98277.24;1674533;83;26392;-74
2021/12/02 08:01:17;;;;;;;11.85;1.50;;;;;;;3.32;67.33;98247.73;1667909;83;98994;-77
2021/12/02 08:03:47;;;;;;;12.70;2.85;;;;;;;3.32;67.45;98265.80;1668133;83;26579;-77
2021/12/02 08:06:15;;;;;;;3.85;1.62;;;;;;;3.34;67.65;98269.22;1674666;84;98539;-77
2021/12/02 08:08:43;;;;;;;3.92;1.95;;;;;;;3.37;67.90;98275.67;1673924;83;26988;-70
2021/12/02 08:11:10;;;;;;;7.30;1.60;;;;;;;3.40;68.06;98279.48;1669010;83;25907;-77
2021/12/02 08:13:37;;;;;;;11.40;3.15;;;;;;;3.44;68.10;98279.72;1673816;85;98145;-76
2021/12/02 08:16:06;;;;;;;9.80;3.02;;;;;;;3.49;68.24;98296.22;1675716;83;26095;-76
2021/12/02 08:18:34;;;;;;;9.88;2.33;;;;;;;3.54;68.23;98291.54;1671806;83;98701;-78
2021/12/02 08:21:00;;;;;;;8.45;1.60;;;;;;;3.63;67.72;98311.39;1665271;85;27396;-78
2021/12/02 08:23:27;;;;;;;2.62;0.98;;;;;;;3.68;67.09;98338.97;1674442;85;26577;-71
2021/12/02 08:25:56;;;;;;;7.55;2.25;;;;;;;3.69;65.29;98353.92;1672314;83;98054;-69
2021/12/02 08:28:23;;;;;;;5.62;1.25;;;;;;;3.67;66.24;98335.46;1671288;83;26659;-69
2021/12/02 08:30:49;;;;;;;1.75;0.78;;;;;;;3.69;65.90;98356.58;1664010;85;98711;-76
2021/12/02 08:33:18;;;;;;;9.90;1.42;;;;;;;3.67;65.88;98342.55;1670155;85;27403;-74
2021/12/02 08:35:44;;;;;;;4.40;1.65;;;;;;;3.66;66.08;98331.56;1679367;83;98789;-71
2021/12/02 08:38:12;;;;;;;8.28;1.42;;;;;;;3.65;66.07;98366.47;1669430;84;25879;-77
2021/12/02 08:40:40;;;;;;;7.42;1.80;;;;;;;3.55;66.04;98354.17;1676917;85;26220;-74
2021/12/02 08:43:11;;;;;;;2.58;1.12;;;;;;;3.59;65.61;98346.92;1672229;84;98749;-74
2021/12/02 08:45:41;;;;;;;5.37;1.20;;;;;;;3.58;65.84;98356.66;1672754;85;27399;-72
2021/12/02 08:48:08;;;;;;;3.70;1.40;;;;;;;3.55;66.37;98336.95;1670214;84;98350;-71
2021/12/02 08:50:36;;;;;;;6.80;2.85;;;;;;;3.57;66.56;98347.00;1667460;85;25895;-72
2021/12/02 08:53:05;;;;;;;9.98;2.35;;;;;;;3.63;66.75;98351.12;1668584;85;25841;-73
2021/12/02 08:55:31;;;;;;;7.05;3.10;;;;;;;3.71;67.06;98350.73;1671171;85;98154;-72
2021/12/02 08:58:00;;;;;;;14.18;2.67;;;;;;;3.78;67.27;98354.77;1674190;85;27459;-73
2021/12/02 09:00:36;;;;;;;12.23;2.70;;;;;;;3.87;67.54;98354.29;1674788;83;98395;-71
2021/12/02 09:03:09;;;;;;;7.35;1.40;;;;;;;3.96;67.61;98389.58;1669688;85;25891;-74
2021/12/02 09:05:37;;;;;;;5.12;1.65;;;;;;;4.05;66.84;98375.84;1668333;83;98842;-73
2021/12/02 09:08:04;;;;;;;9.15;1.90;;;;;;;4.10;67.21;98373.80;1671025;85;25928;-74
2021/12/02 09:10:30;;;;;;;8.30;1.70;;;;;;;4.14;66.29;98399.21;1674356;85;28286;-74
2021/12/02 09:12:56;;;;;;;4.37;1.27;;;;;;;4.10;65.98;98360.55;1672953;85;98569;-76
2021/12/02 09:15:24;;;;;;;4.37;1.37;;;;;;;4.10;66.14;98371.63;1672427;85;25824;-74
2021/12/02 09:17:51;;;;;;;6.87;1.42;;;;;;;4.08;67.02;98367.73;1667615;83;98383;-77
2021/12/02 09:20:18;;;;;;;4.33;1.50;;;;;;;4.09;66.65;98375.21;1675822;83;25305;-77
2021/12/02 09:22:46;;;;;;;11.22;2.60;;;;;;;4.07;66.92;98380.59;1674301;83;27331;-71
2021/12/02 09:25:15;;;;;;;3.62;1.32;;;;;;;4.06;66.62;98374.05;1672043;83;98378;-71
2021/12/02 09:27:40;;;;;;;12.47;2.42;;;;;;;4.03;66.20;98400.25;1669984;83;25816;-75
2021/12/02 09:30:08;;;;;;;6.17;1.95;;;;;;;4.04;66.52;98374.12;1676292;83;98571;-75
2021/12/02 09:32:36;;;;;;;4.85;1.55;;;;;;;4.06;66.28;98380.67;1678620;83;25779;-74
2021/12/02 09:35:03;;;;;;;6.47;1.60;;;;;;;4.11;66.27;98382.61;1674507;83;28102;-73
2021/12/02 09:37:29;;;;;;;5.95;1.62;;;;;;;4.18;66.30;98379.55;1667802;83;98227;-76
2021/12/02 09:39:55;;;;;;;4.67;1.62;;;;;;;4.24;65.88;98393.80;1675852;83;25857;-72
2021/12/02 09:42:21;;;;;;;4.55;1.30;;;;;;;4.26;64.96;98413.61;1673854;83;98831;-76
2021/12/02 09:44:48;;;;;;;6.55;1.47;;;;;;;4.23;63.35;98424.38;1672479;83;26021;-74
2021/12/02 09:47:16;;;;;;;7.53;1.47;;;;;;;4.17;64.62;98387.59;1672340;83;27472;-77
2021/12/02 09:49:43;;;;;;;5.75;1.45;;;;;;;4.13;64.10;98427.13;1675043;85;98313;-80
2021/12/02 09:52:13;;;;;;;5.22;0.82;;;;;;;4.06;62.93;98419.11;1673740;83;26567;-77
2021/12/02 09:54:40;;;;;;;4.58;1.20;;;;;;;3.94;61.28;98406.03;1667580;83;98386;-78
2021/12/02 09:57:07;;;;;;;7.42;1.47;;;;;;;3.78;62.22;98407.77;1662239;84;25936;-77
2021/12/02 09:59:51;;;;;;;6.95;1.67;;;;;;;3.73;61.52;98399.19;1679197;83;98735;-79
2021/12/02 10:02:20;;;;;;;8.68;1.12;;;;;;;3.65;62.05;98396.94;1668041;83;26623;-77
2021/12/02 10:04:50;;;;;;;6.12;1.10;;;;;;;3.56;61.89;98404.89;1670425;83;25820;-75
2021/12/02 10:07:44;;;;;;;6.22;1.60;;;;;;;3.51;61.54;98409.56;1673112;83;98675;-74
2021/12/02 10:12:41;;;;;;;6.53;2.35;;;;;;;3.44;61.11;98449.20;1672566;83;98136;-77
2021/12/02 10:15:06;;;;;;;6.40;1.50;;;;;;;3.42;61.57;98431.67;1674452;83;25884;-78
2021/12/02 10:17:37;;;;;;;8.75;1.57;;;;;;;3.37;61.04;98445.61;1669146;85;25979;-78
2021/12/02 10:23:05;;;;;;;3.20;1.30;;;;;;;3.32;60.92;98439.67;1676217;83;25770;-76
2021/12/02 10:25:35;;;;;;;3.65;1.00;;;;;;;3.29;60.54;98479.08;1666037;83;98188;-77
2021/12/02 10:28:11;;;;;;;5.55;1.57;;;;;;;3.26;61.03;98444.34;1671558;85;25801;-75
2021/12/02 10:30:47;;;;;;;10.68;1.62;;;;;;;3.25;61.22;98438.66;1664907;85;98208;-79
2021/12/02 10:33:14;;;;;;;8.53;2.70;;;;;;;3.31;60.86;98464.44;1670450;85;25840;-77
2021/12/02 10:35:45;;;;;;;4.90;1.32;;;;;;;3.34;61.21;98466.47;1675034;85;25825;-74
2021/12/02 10:38:45;;;;;;;8.30;3.45;;;;;;;3.42;61.40;98458.16;1666817;85;98074;-75
2021/12/02 10:41:18;;;;;;;7.67;1.30;;;;;;;3.44;61.38;98482.30;1674872;85;25821;-74
2021/12/02 10:44:10;;;;;;;5.17;1.25;;;;;;;3.53;61.35;98473.91;1669814;85;98559;-77
2021/12/02 10:46:39;;;;;;;9.80;1.72;;;;;;;3.57;60.96;98454.28;1666409;85;26171;-76
2021/12/02 10:49:11;;;;;;;3.02;1.47;;;;;;;3.57;60.98;98446.80;1670713;84;98238;-77
2021/12/02 10:51:46;;;;;;;2.33;1.00;;;;;;;3.58;60.94;98515.59;1673508;84;27508;-77
2021/12/02 10:54:26;;;;;;;5.92;1.50;;;;;;;3.57;61.11;98457.39;1672817;83;98697;-75
2021/12/02 10:56:57;;;;;;;9.00;2.00;;;;;;;3.61;61.43;98470.02;1673783;85;25800;-75
2021/12/02 10:59:43;;;;;;;3.33;1.20;;;;;;;3.68;61.29;98471.42;1667466;83;26186;-76
2021/12/02 11:02:20;;;;;;;5.87;1.52;;;;;;;3.71;61.08;98476.57;1668278;84;97932;-77
2021/12/02 11:04:59;;;;;;;5.72;1.30;;;;;;;3.73;61.69;98478.20;1672009;85;27487;-76
2021/12/02 11:07:33;;;;;;;29.50;2.17;;;;;;;3.75;61.29;98479.45;1669267;85;98238;-77
2021/12/02 11:10:05;;;;;;;5.80;1.40;;;;;;;3.73;61.61;98486.63;1666912;85;25720;-74
2021/12/02 11:12:41;;;;;;;2.45;1.40;;;;;;;3.74;61.74;98490.98;1668969;83;98617;-76
2021/12/02 11:15:33;;;;;;;3.22;1.30;;;;;;;3.78;61.64;98508.45;1670721;85;25759;-76
2021/12/02 11:18:02;;;;;;;;;;;;;;;3.75;61.80;98504.63;1667077;84;98908;-74
2021/12/02 11:20:39;;;;;;;17.25;4.08;;;;;;;3.73;61.95;98511.79;1666885;84;25910;-76
2021/12/02 11:23:28;;;;;;;3.33;1.10;;;;;;;3.70;62.16;98500.88;1644832;86;26435;-75
2021/12/02 11:25:57;;;;;;;9.70;1.67;;;;;;;3.68;61.86;98522.62;1628216;84;98591;-74
2021/12/02 11:28:27;;;;;;;11.08;2.00;;;;;;;3.58;61.79;98509.44;1625894;86;25789;-74
2021/12/02 11:30:55;;;;;;;4.70;1.72;;;;;;;3.55;62.21;98522.83;1616390;86;98432;-73
2021/12/02 11:33:31;;;;;;;4.95;1.57;;;;;;;3.52;62.65;98523.83;1599953;88;25771;-75
2021/12/02 11:35:57;;;;;;;3.02;1.20;;;;;;;3.49;62.50;98536.37;1591448;87;98437;-73
2021/12/02 11:38:26;;;;;;;9.78;1.35;;;;;;;3.41;62.75;98530.58;1614331;87;25815;-73
2021/12/02 11:40:56;;;;;;;6.00;1.60;;;;;;;3.35;63.18;98541.00;1613165;85;25984;-74
2021/12/02 11:43:26;;;;;;;7.15;2.30;;;;;;;3.33;63.08;98543.33;1608371;87;98194;-74
2021/12/02 11:45:55;;;;;;;5.25;2.25;;;;;;;3.27;63.42;98533.89;1616542;87;25755;-75
2021/12/02 11:48:24;;;;;;;5.47;1.80;;;;;;;3.30;63.61;98546.98;1610732;87;98429;-74
2021/12/02 11:50:55;;;;;;;5.17;1.45;;;;;;;3.32;63.72;98554.39;1610341;87;25813;-74
2021/12/02 11:53:22;;;;;;;4.60;1.25;;;;;;;3.33;63.61;98546.83;1616198;87;26362;-74
2021/12/02 11:55:53;;;;;;;5.75;1.90;;;;;;;3.41;63.91;98568.52;1617373;86;98230;-74
2021/12/02 11:58:19;;;;;;;4.67;2.02;;;;;;;3.47;64.07;98580.60;1621849;86;25851;-74
2021/12/02 12:00:47;;;;;;;12.05;2.10;;;;;;;3.49;64.32;98562.38;1622765;86;98361;-74